createdAt,value
2022-11-04T00:01:04.453Z,20.40
2022-11-04T00:06:02.088Z,23.98
2022-11-04T00:11:17.793Z,18.95
2022-11-04T00:16:36.050Z,16.60
2022-11-04T00:21:51.055Z,16.17
2022-11-04T00:27:06.122Z,16.43
2022-11-04T00:32:22.138Z,23.97
2022-11-04T00:37:19.334Z,17.83
2022-11-04T00:42:17.292Z,14.90
2022-11-04T00:47:15.243Z,17.40
2022-11-04T00:52:12.276Z,18.25
2022-11-04T00:57:09.957Z,18.42
2022-11-04T01:02:10.318Z,23.70
2022-11-04T01:07:08.328Z,20.42
2022-11-04T01:12:05.675Z,19.10
2022-11-04T01:17:02.632Z,18.90
2022-11-04T01:21:59.551Z,21.95
2022-11-04T01:26:57.213Z,22.83
2022-11-04T01:31:54.236Z,27.48
2022-11-04T01:36:51.294Z,22.73
2022-11-04T01:41:48.699Z,22.60
2022-11-04T01:46:49.866Z,20.88
2022-11-04T01:51:49.603Z,19.80
2022-11-04T01:56:48.362Z,20.73
2022-11-04T02:01:47.301Z,18.15
2022-11-04T02:06:45.726Z,19.08
2022-11-04T02:12:00.652Z,19.85
2022-11-04T02:17:05.919Z,16.13
2022-11-04T02:22:35.994Z,16.58
2022-11-04T02:28:01.295Z,20.67
2022-11-04T02:33:17.894Z,16.30
2022-11-04T02:38:26.551Z,21.95
2022-11-04T02:43:27.338Z,19.27
2022-11-04T02:48:36.481Z,18.65
2022-11-04T02:53:40.878Z,14.20
2022-11-04T02:58:44.389Z,15.55
2022-11-04T03:03:48.308Z,19.17
2022-11-04T03:08:48.554Z,22.50
2022-11-04T03:13:50.022Z,21.52
2022-11-04T03:18:59.195Z,20.27
2022-11-04T03:23:56.171Z,16.15
2022-11-04T03:29:07.203Z,31.38
2022-11-04T03:34:04.956Z,19.33
2022-11-04T03:39:02.260Z,14.45
2022-11-04T03:43:59.520Z,14.70
2022-11-04T03:49:10.573Z,13.80
2022-11-04T03:54:08.851Z,15.57
2022-11-04T03:59:23.748Z,13.90
2022-11-04T04:04:27.550Z,18.57
2022-11-04T04:09:31.534Z,18.92
2022-11-04T04:14:39.495Z,18.08
2022-11-04T04:19:37.597Z,18.65
2022-11-04T04:24:55.696Z,19.85
2022-11-04T04:29:53.994Z,21.83
2022-11-04T04:35:11.196Z,26.17
2022-11-04T04:40:33.862Z,23.40
2022-11-04T04:45:34.888Z,21.33
2022-11-04T04:50:41.027Z,22.73
2022-11-04T04:55:41.805Z,23.48
2022-11-04T05:00:39.677Z,36.67
2022-11-04T05:05:41.626Z,27.90
2022-11-04T05:10:39.630Z,28.55
2022-11-04T05:15:36.689Z,29.45
2022-11-04T05:20:37.882Z,29.05
2022-11-04T05:25:36.743Z,33.80
2022-11-04T05:30:35.940Z,27.00
2022-11-04T05:35:33.481Z,26.90
2022-11-04T05:40:30.535Z,28.85
2022-11-04T05:45:29.143Z,30.65
2022-11-04T05:50:27.797Z,28.20
2022-11-04T05:55:25.542Z,27.27
2022-11-04T06:00:25.827Z,25.25
2022-11-04T06:05:22.677Z,24.05
2022-11-04T06:10:26.345Z,27.08
2022-11-04T06:15:25.754Z,22.50
2022-11-04T06:20:22.741Z,27.15
2022-11-04T06:25:20.362Z,22.65
2022-11-04T06:30:19.405Z,34.28
2022-11-04T06:35:16.796Z,40.35
2022-11-04T06:40:14.982Z,35.42
2022-11-04T06:45:12.880Z,34.40
2022-11-04T06:50:11.049Z,35.38
2022-11-04T06:55:09.730Z,31.35
2022-11-04T07:00:08.401Z,36.28
2022-11-04T07:05:07.623Z,29.73
2022-11-04T07:10:05.714Z,27.40
2022-11-04T07:15:02.741Z,18.15
2022-11-04T07:19:59.773Z,28.75
2022-11-04T07:24:57.883Z,26.60
2022-11-04T07:29:54.835Z,30.50
2022-11-04T07:34:51.781Z,27.02
2022-11-04T07:39:48.864Z,28.80
2022-11-04T07:44:47.270Z,16.55
2022-11-04T07:49:44.949Z,27.92
2022-11-04T07:54:42.001Z,17.85
2022-11-04T07:59:39.158Z,28.00
2022-11-04T08:04:37.088Z,19.85
2022-11-04T08:09:35.928Z,28.10
2022-11-04T08:14:33.069Z,24.50
2022-11-04T08:19:30.804Z,18.55
2022-11-04T08:24:28.453Z,23.00
2022-11-04T08:29:25.719Z,24.83
2022-11-04T08:34:22.670Z,20.63
2022-11-04T08:39:22.227Z,28.88
2022-11-04T08:44:20.513Z,25.75
2022-11-04T08:49:21.046Z,22.58
2022-11-04T08:54:18.401Z,19.40
2022-11-04T08:59:15.470Z,21.35
2022-11-04T09:04:13.474Z,28.45
2022-11-04T09:09:14.401Z,27.55
2022-11-04T09:14:11.896Z,18.75
2022-11-04T09:19:09.537Z,22.60
2022-11-04T09:24:12.094Z,15.98
2022-11-04T09:29:09.874Z,21.98
2022-11-04T09:34:09.754Z,17.08
2022-11-04T09:39:07.681Z,20.50
2022-11-04T09:44:14.350Z,17.30
2022-11-04T09:49:13.526Z,18.33
2022-11-04T09:54:18.513Z,19.25
2022-11-04T09:59:26.222Z,17.10
2022-11-04T10:04:31.744Z,19.08
2022-11-04T10:09:46.981Z,13.70
2022-11-04T10:15:09.462Z,13.40
2022-11-04T10:20:23.220Z,19.13
2022-11-04T10:25:24.047Z,12.82
2022-11-04T10:30:23.254Z,16.00
2022-11-04T10:35:29.793Z,17.92
2022-11-04T10:40:31.878Z,13.07
2022-11-04T10:45:41.381Z,16.77
2022-11-04T10:50:42.866Z,19.42
2022-11-04T10:55:49.257Z,15.85
2022-11-04T11:00:46.243Z,13.95
2022-11-04T11:05:43.165Z,16.42
2022-11-04T11:11:09.066Z,14.30
2022-11-04T11:16:37.458Z,13.13
2022-11-04T11:22:11.309Z,19.52
2022-11-04T11:27:25.825Z,15.48
2022-11-04T11:33:36.353Z,16.27
2022-11-04T11:39:08.136Z,10.30
2022-11-04T11:44:33.220Z,13.15
2022-11-04T11:49:46.918Z,15.05
2022-11-04T11:55:03.987Z,16.00
2022-11-04T12:00:40.182Z,14.02
2022-11-04T12:11:18.113Z,11.82
2022-11-04T12:16:34.058Z,15.98
2022-11-04T12:21:49.656Z,12.68
2022-11-04T12:27:15.971Z,14.73
2022-11-04T12:32:28.079Z,16.85
2022-11-04T12:37:39.125Z,16.33
2022-11-04T12:42:45.249Z,17.15
2022-11-04T12:47:45.562Z,19.13
2022-11-04T12:53:14.683Z,16.10
2022-11-04T12:58:29.194Z,18.88
2022-11-04T13:03:34.860Z,18.33
2022-11-04T13:08:42.924Z,18.17
2022-11-04T13:13:40.741Z,15.07
2022-11-04T13:18:43.205Z,17.65
2022-11-04T13:23:46.086Z,19.73
2022-11-04T13:28:48.183Z,21.60
2022-11-04T13:33:53.997Z,23.35
2022-11-04T13:38:54.121Z,25.98
2022-11-04T13:43:53.492Z,23.13
2022-11-04T13:49:05.225Z,22.30
2022-11-04T13:54:06.380Z,21.60
2022-11-04T13:59:17.257Z,25.58
2022-11-04T14:04:31.102Z,24.83
2022-11-04T14:09:52.298Z,19.83
2022-11-04T14:14:54.480Z,27.33
2022-11-04T14:19:59.414Z,29.42
2022-11-04T14:24:58.398Z,25.75
2022-11-04T14:30:00.126Z,28.90
2022-11-04T14:35:02.872Z,27.23
2022-11-04T14:40:02.196Z,32.13
2022-11-04T14:45:00.891Z,29.10
2022-11-04T14:50:08.060Z,37.10
2022-11-04T14:55:08.466Z,30.13
2022-11-04T15:00:28.546Z,28.08
2022-11-04T15:05:28.541Z,22.50
2022-11-04T15:10:29.254Z,30.25
2022-11-04T15:15:29.670Z,32.08
2022-11-04T15:20:30.709Z,31.90
2022-11-04T15:25:28.692Z,28.52
2022-11-04T15:30:31.073Z,35.67
2022-11-04T15:35:31.931Z,24.40
2022-11-04T15:40:47.033Z,26.30
2022-11-04T15:45:51.753Z,24.38
2022-11-04T15:50:55.063Z,27.20
2022-11-04T15:55:55.912Z,25.33
2022-11-04T16:00:57.163Z,20.73
2022-11-04T16:06:04.055Z,21.33
2022-11-04T16:11:17.156Z,22.00
2022-11-04T16:16:23.527Z,21.20
2022-11-04T16:21:27.578Z,36.30
2022-11-04T16:26:34.440Z,44.47
2022-11-04T16:31:35.597Z,20.42
2022-11-04T16:36:38.094Z,20.08
2022-11-04T16:41:40.812Z,23.17
2022-11-04T16:46:41.196Z,20.85
2022-11-04T16:51:40.683Z,16.00
2022-11-04T16:56:57.095Z,20.95
2022-11-04T17:01:57.784Z,18.33
2022-11-04T17:06:56.542Z,23.23
2022-11-04T17:11:55.730Z,23.13
2022-11-04T17:16:52.858Z,17.80
2022-11-04T17:21:54.943Z,29.98
2022-11-04T17:26:56.890Z,32.35
2022-11-04T17:31:58.606Z,40.17
2022-11-04T17:36:56.908Z,37.72
2022-11-04T17:42:21.792Z,38.70
2022-11-04T17:47:22.045Z,33.80
2022-11-04T17:52:19.613Z,35.45
2022-11-04T17:57:18.156Z,25.40
2022-11-04T18:02:18.117Z,35.10
2022-11-04T18:07:18.625Z,23.55
2022-11-04T18:12:34.389Z,25.60
2022-11-04T18:17:32.075Z,30.13
2022-11-04T18:22:29.402Z,27.10
2022-11-04T18:27:27.417Z,24.33
2022-11-04T18:32:25.110Z,30.02
2022-11-04T18:37:22.731Z,21.73
2022-11-04T18:42:19.858Z,30.00
2022-11-04T18:47:20.127Z,25.38
2022-11-04T18:52:18.795Z,32.33
2022-11-04T18:57:16.059Z,27.20
2022-11-04T19:02:19.631Z,24.52
2022-11-04T19:07:21.372Z,25.33
2022-11-04T19:12:36.785Z,26.20
2022-11-04T19:22:37.643Z,25.52
2022-11-04T19:27:37.341Z,31.88
2022-11-04T19:32:34.952Z,29.25
2022-11-04T19:37:35.926Z,29.95
2022-11-04T19:42:51.552Z,23.58
2022-11-04T19:47:48.667Z,21.52
2022-11-04T19:52:48.423Z,31.00
2022-11-04T19:57:48.767Z,24.60
2022-11-04T20:02:46.435Z,23.95
2022-11-04T20:07:43.721Z,22.90
2022-11-04T20:12:59.782Z,26.38
2022-11-04T20:17:56.934Z,27.52
2022-11-04T20:22:54.266Z,28.75
2022-11-04T20:27:57.012Z,28.40
2022-11-04T20:32:54.177Z,26.40
2022-11-04T20:37:51.355Z,27.95
2022-11-04T20:42:54.734Z,31.60
2022-11-04T20:47:53.313Z,30.10
2022-11-04T20:52:50.333Z,24.52
2022-11-04T20:57:50.221Z,28.75
2022-11-04T21:02:48.232Z,30.70
2022-11-04T21:07:47.297Z,32.15
2022-11-04T21:12:44.735Z,31.98
2022-11-04T21:17:45.162Z,29.13
2022-11-04T21:22:43.325Z,27.20
2022-11-04T21:27:40.516Z,29.63
2022-11-04T21:32:39.432Z,26.95
2022-11-04T21:37:37.281Z,21.92
2022-11-04T21:42:38.299Z,27.25
2022-11-04T21:47:37.737Z,22.60
2022-11-04T21:52:34.894Z,26.15
2022-11-04T21:57:32.189Z,33.58
2022-11-04T22:02:38.391Z,26.08
2022-11-04T22:07:56.378Z,29.55
2022-11-04T22:12:54.870Z,28.38
2022-11-04T22:17:53.022Z,26.20
2022-11-04T22:22:50.085Z,35.10
2022-11-04T22:27:50.381Z,30.67
2022-11-04T22:32:50.480Z,30.27
2022-11-04T22:37:48.746Z,29.80
2022-11-04T22:42:45.876Z,33.67
2022-11-04T22:47:43.345Z,27.90
2022-11-04T22:52:42.934Z,25.95
2022-11-04T22:57:44.093Z,26.95
2022-11-04T23:02:41.573Z,25.50
2022-11-04T23:07:38.842Z,28.00
2022-11-04T23:12:54.107Z,25.65
2022-11-04T23:18:10.422Z,27.10
2022-11-04T23:23:25.403Z,22.85
2022-11-04T23:28:40.643Z,60.10
2022-11-04T23:33:56.309Z,23.55
2022-11-04T23:43:51.743Z,27.45
2022-11-04T23:49:07.910Z,19.85
2022-11-04T23:54:23.263Z,19.98
2022-11-04T23:59:38.695Z,22.42
